Terminal Aerodrome Forecast
Issued by NWS St Louis, MO

Home | Current Version | Previous Version | Graphics & Text | Print | Product List | Glossary On
Versions: 1 2 3 4 5 6 7 8 9 10 11 12 13 14 15 16 17 18 19 20 21 22 23 24 25 26 27 28 29 30 31
901
FTUS43 KLSX 160851 AAA
TAFSTL
TAF AMD
KSTL 160851Z 1609/1712 11005KT 1/4SM FG OVC002
     FM161500 12008KT 1/2SM -RA FG OVC003
     FM161800 13010KT 2SM -RA BR OVC005
     FM162100 14010KT 4SM -RA BR OVC008
     FM170300 18008KT 5SM -RA BR OVC012
     FM170600 22009KT 5SM BR OVC015
     FM170900 26010KT 6SM BR BKN020=

USA.gov is the U.S. government's official web portal to all federal, state and local government web resources and services.